sensor_id;sensor_type;location;lat;lon;timestamp;P1;durP1;ratioP1;P2;durP2;ratioP2
58878;SDS011;44660;42.664;23.266;2023-01-06T00:00:36;14.65;;;6.18;;
58878;SDS011;44660;42.664;23.266;2023-01-06T00:03:02;13.25;;;6.00;;
58878;SDS011;44660;42.664;23.266;2023-01-06T00:05:28;10.40;;;4.88;;
58878;SDS011;44660;42.664;23.266;2023-01-06T00:07:54;11.05;;;4.95;;
58878;SDS011;44660;42.664;23.266;2023-01-06T00:10:19;10.82;;;5.28;;
58878;SDS011;44660;42.664;23.266;2023-01-06T00:12:46;11.30;;;5.20;;
58878;SDS011;44660;42.664;23.266;2023-01-06T00:15:12;11.13;;;5.35;;
58878;SDS011;44660;42.664;23.266;2023-01-06T00:17:39;13.68;;;5.47;;
58878;SDS011;44660;42.664;23.266;2023-01-06T00:20:05;11.07;;;5.72;;
58878;SDS011;44660;42.664;23.266;2023-01-06T00:22:31;11.10;;;5.43;;
58878;SDS011;44660;42.664;23.266;2023-01-06T00:24:56;12.35;;;5.57;;
58878;SDS011;44660;42.664;23.266;2023-01-06T00:27:22;9.70;;;5.05;;
58878;SDS011;44660;42.664;23.266;2023-01-06T00:29:47;12.20;;;5.13;;
58878;SDS011;44660;42.664;23.266;2023-01-06T00:32:14;10.15;;;4.63;;
58878;SDS011;44660;42.664;23.266;2023-01-06T00:34:41;9.25;;;5.05;;
58878;SDS011;44660;42.664;23.266;2023-01-06T00:37:06;10.85;;;5.28;;
58878;SDS011;44660;42.664;23.266;2023-01-06T00:39:32;9.85;;;4.80;;
58878;SDS011;44660;42.664;23.266;2023-01-06T00:41:57;7.93;;;4.82;;
58878;SDS011;44660;42.664;23.266;2023-01-06T00:44:30;8.10;;;4.75;;
58878;SDS011;44660;42.664;23.266;2023-01-06T00:47:00;8.07;;;4.65;;
58878;SDS011;44660;42.664;23.266;2023-01-06T00:49:26;7.95;;;4.70;;
58878;SDS011;44660;42.664;23.266;2023-01-06T00:51:52;10.18;;;4.80;;
58878;SDS011;44660;42.664;23.266;2023-01-06T00:54:18;10.60;;;4.90;;
58878;SDS011;44660;42.664;23.266;2023-01-06T00:56:49;9.20;;;4.78;;
58878;SDS011;44660;42.664;23.266;2023-01-06T00:59:21;10.38;;;4.85;;
58878;SDS011;44660;42.664;23.266;2023-01-06T01:01:49;7.40;;;4.38;;
58878;SDS011;44660;42.664;23.266;2023-01-06T01:04:17;9.23;;;4.30;;
58878;SDS011;44660;42.664;23.266;2023-01-06T01:06:43;10.90;;;4.28;;
58878;SDS011;44660;42.664;23.266;2023-01-06T01:09:15;11.77;;;4.63;;
58878;SDS011;44660;42.664;23.266;2023-01-06T01:11:42;7.53;;;4.05;;
58878;SDS011;44660;42.664;23.266;2023-01-06T01:14:25;7.35;;;4.20;;
58878;SDS011;44660;42.664;23.266;2023-01-06T01:16:51;7.43;;;4.53;;
58878;SDS011;44660;42.664;23.266;2023-01-06T01:19:17;10.05;;;4.65;;
58878;SDS011;44660;42.664;23.266;2023-01-06T01:21:43;8.00;;;3.90;;
58878;SDS011;44660;42.664;23.266;2023-01-06T01:24:09;7.50;;;4.25;;
58878;SDS011;44660;42.664;23.266;2023-01-06T01:26:35;9.52;;;5.03;;
58878;SDS011;44660;42.664;23.266;2023-01-06T01:29:00;11.75;;;6.78;;
58878;SDS011;44660;42.664;23.266;2023-01-06T01:31:26;12.60;;;7.28;;
58878;SDS011;44660;42.664;23.266;2023-01-06T01:33:51;6.28;;;3.85;;
58878;SDS011;44660;42.664;23.266;2023-01-06T01:36:17;7.18;;;3.83;;
58878;SDS011;44660;42.664;23.266;2023-01-06T01:38:43;8.00;;;4.00;;
58878;SDS011;44660;42.664;23.266;2023-01-06T01:41:12;7.72;;;3.83;;
58878;SDS011;44660;42.664;23.266;2023-01-06T01:43:49;6.38;;;3.55;;
58878;SDS011;44660;42.664;23.266;2023-01-06T01:46:25;6.88;;;3.45;;
58878;SDS011;44660;42.664;23.266;2023-01-06T01:48:51;5.97;;;3.60;;
58878;SDS011;44660;42.664;23.266;2023-01-06T01:51:21;8.07;;;3.60;;
58878;SDS011;44660;42.664;23.266;2023-01-06T01:53:52;6.55;;;3.70;;
58878;SDS011;44660;42.664;23.266;2023-01-06T01:56:23;7.68;;;3.50;;
58878;SDS011;44660;42.664;23.266;2023-01-06T01:58:54;6.78;;;3.63;;
58878;SDS011;44660;42.664;23.266;2023-01-06T02:01:23;6.45;;;3.47;;
58878;SDS011;44660;42.664;23.266;2023-01-06T02:03:49;5.70;;;3.08;;
58878;SDS011;44660;42.664;23.266;2023-01-06T02:06:16;7.03;;;3.72;;
58878;SDS011;44660;42.664;23.266;2023-01-06T02:08:46;5.47;;;3.55;;
58878;SDS011;44660;42.664;23.266;2023-01-06T02:11:20;7.15;;;3.10;;
58878;SDS011;44660;42.664;23.266;2023-01-06T02:13:47;4.65;;;2.53;;
58878;SDS011;44660;42.664;23.266;2023-01-06T02:35:52;3.75;;;2.30;;
58878;SDS011;44660;42.664;23.266;2023-01-06T02:43:51;4.70;;;2.58;;
58878;SDS011;44660;42.664;23.266;2023-01-06T02:49:23;5.68;;;2.90;;
58878;SDS011;44660;42.664;23.266;2023-01-06T02:51:59;5.05;;;2.90;;
58878;SDS011;44660;42.664;23.266;2023-01-06T03:00:07;4.35;;;2.78;;
58878;SDS011;44660;42.664;23.266;2023-01-06T03:02:43;5.10;;;2.63;;
58878;SDS011;44660;42.664;23.266;2023-01-06T03:05:15;4.60;;;2.80;;
58878;SDS011;44660;42.664;23.266;2023-01-06T03:07:41;4.97;;;2.90;;
58878;SDS011;44660;42.664;23.266;2023-01-06T03:10:09;5.00;;;3.05;;
58878;SDS011;44660;42.664;23.266;2023-01-06T03:12:40;6.00;;;3.05;;
58878;SDS011;44660;42.664;23.266;2023-01-06T03:15:11;5.80;;;3.28;;
58878;SDS011;44660;42.664;23.266;2023-01-06T03:17:36;6.15;;;2.97;;
58878;SDS011;44660;42.664;23.266;2023-01-06T03:20:02;5.43;;;3.28;;
58878;SDS011;44660;42.664;23.266;2023-01-06T03:22:28;5.78;;;3.10;;
58878;SDS011;44660;42.664;23.266;2023-01-06T03:24:54;4.80;;;2.90;;
58878;SDS011;44660;42.664;23.266;2023-01-06T03:27:20;5.78;;;3.30;;
58878;SDS011;44660;42.664;23.266;2023-01-06T03:29:49;9.55;;;3.42;;
58878;SDS011;44660;42.664;23.266;2023-01-06T03:32:29;5.30;;;2.90;;
58878;SDS011;44660;42.664;23.266;2023-01-06T03:43:04;5.38;;;2.80;;
58878;SDS011;44660;42.664;23.266;2023-01-06T03:51:46;4.43;;;2.53;;
58878;SDS011;44660;42.664;23.266;2023-01-06T03:54:33;6.50;;;2.67;;
58878;SDS011;44660;42.664;23.266;2023-01-06T03:57:05;7.07;;;2.88;;
58878;SDS011;44660;42.664;23.266;2023-01-06T03:59:39;4.47;;;2.80;;
58878;SDS011;44660;42.664;23.266;2023-01-06T04:02:08;4.18;;;2.60;;
58878;SDS011;44660;42.664;23.266;2023-01-06T04:04:34;5.05;;;3.00;;
58878;SDS011;44660;42.664;23.266;2023-01-06T04:07:00;6.03;;;2.75;;
58878;SDS011;44660;42.664;23.266;2023-01-06T04:09:26;6.65;;;2.83;;
58878;SDS011;44660;42.664;23.266;2023-01-06T04:11:51;6.70;;;2.63;;
58878;SDS011;44660;42.664;23.266;2023-01-06T04:14:35;5.20;;;2.97;;
58878;SDS011;44660;42.664;23.266;2023-01-06T04:17:01;5.68;;;2.70;;
58878;SDS011;44660;42.664;23.266;2023-01-06T04:19:27;6.35;;;3.15;;
58878;SDS011;44660;42.664;23.266;2023-01-06T04:21:52;6.78;;;3.10;;
58878;SDS011;44660;42.664;23.266;2023-01-06T04:24:18;7.60;;;3.60;;
58878;SDS011;44660;42.664;23.266;2023-01-06T04:26:43;7.75;;;3.63;;
58878;SDS011;44660;42.664;23.266;2023-01-06T04:29:08;5.07;;;2.90;;
58878;SDS011;44660;42.664;23.266;2023-01-06T04:31:34;5.47;;;2.80;;
58878;SDS011;44660;42.664;23.266;2023-01-06T04:33:59;6.60;;;3.33;;
58878;SDS011;44660;42.664;23.266;2023-01-06T04:36:25;4.75;;;2.65;;
58878;SDS011;44660;42.664;23.266;2023-01-06T04:38:50;5.25;;;3.25;;
58878;SDS011;44660;42.664;23.266;2023-01-06T04:41:16;6.72;;;3.05;;
58878;SDS011;44660;42.664;23.266;2023-01-06T04:43:41;7.25;;;3.00;;
58878;SDS011;44660;42.664;23.266;2023-01-06T04:46:07;6.65;;;2.95;;
58878;SDS011;44660;42.664;23.266;2023-01-06T04:48:32;4.47;;;2.72;;
58878;SDS011;44660;42.664;23.266;2023-01-06T04:53:27;2.97;;;2.08;;
58878;SDS011;44660;42.664;23.266;2023-01-06T04:55:52;4.25;;;2.38;;
58878;SDS011;44660;42.664;23.266;2023-01-06T04:58:18;4.82;;;2.85;;
58878;SDS011;44660;42.664;23.266;2023-01-06T05:00:44;5.78;;;2.95;;
58878;SDS011;44660;42.664;23.266;2023-01-06T05:03:09;8.02;;;2.72;;
58878;SDS011;44660;42.664;23.266;2023-01-06T05:05:36;4.15;;;2.45;;
58878;SDS011;44660;42.664;23.266;2023-01-06T05:08:02;4.57;;;2.25;;
58878;SDS011;44660;42.664;23.266;2023-01-06T05:10:27;10.85;;;2.78;;
58878;SDS011;44660;42.664;23.266;2023-01-06T05:12:53;6.38;;;2.40;;
58878;SDS011;44660;42.664;23.266;2023-01-06T05:15:18;3.72;;;2.38;;
58878;SDS011;44660;42.664;23.266;2023-01-06T05:17:44;6.88;;;2.50;;
58878;SDS011;44660;42.664;23.266;2023-01-06T05:20:10;6.65;;;2.40;;
58878;SDS011;44660;42.664;23.266;2023-01-06T05:22:36;9.80;;;4.55;;
58878;SDS011;44660;42.664;23.266;2023-01-06T05:25:02;6.40;;;4.10;;
58878;SDS011;44660;42.664;23.266;2023-01-06T05:27:27;7.47;;;3.80;;
58878;SDS011;44660;42.664;23.266;2023-01-06T05:29:53;9.43;;;4.72;;
58878;SDS011;44660;42.664;23.266;2023-01-06T05:32:18;6.57;;;3.30;;
58878;SDS011;44660;42.664;23.266;2023-01-06T05:34:44;7.03;;;3.85;;
58878;SDS011;44660;42.664;23.266;2023-01-06T05:37:09;6.55;;;3.03;;
58878;SDS011;44660;42.664;23.266;2023-01-06T05:39:34;5.82;;;3.17;;
58878;SDS011;44660;42.664;23.266;2023-01-06T05:42:00;3.85;;;2.55;;
58878;SDS011;44660;42.664;23.266;2023-01-06T05:44:25;7.15;;;3.50;;
58878;SDS011;44660;42.664;23.266;2023-01-06T05:46:51;5.97;;;3.60;;
58878;SDS011;44660;42.664;23.266;2023-01-06T05:49:16;5.38;;;2.90;;
58878;SDS011;44660;42.664;23.266;2023-01-06T05:51:42;6.68;;;2.75;;
58878;SDS011;44660;42.664;23.266;2023-01-06T05:54:07;4.47;;;2.70;;
58878;SDS011;44660;42.664;23.266;2023-01-06T05:56:34;6.70;;;2.67;;
58878;SDS011;44660;42.664;23.266;2023-01-06T05:59:00;4.53;;;2.40;;
58878;SDS011;44660;42.664;23.266;2023-01-06T06:01:27;3.90;;;2.30;;
58878;SDS011;44660;42.664;23.266;2023-01-06T06:03:55;3.45;;;2.08;;
58878;SDS011;44660;42.664;23.266;2023-01-06T06:06:22;3.42;;;2.20;;
58878;SDS011;44660;42.664;23.266;2023-01-06T06:08:49;5.55;;;2.30;;
58878;SDS011;44660;42.664;23.266;2023-01-06T06:11:16;6.22;;;2.88;;
58878;SDS011;44660;42.664;23.266;2023-01-06T06:13:47;3.15;;;2.13;;
58878;SDS011;44660;42.664;23.266;2023-01-06T06:16:14;5.15;;;2.42;;
58878;SDS011;44660;42.664;23.266;2023-01-06T06:18:40;5.40;;;2.30;;
58878;SDS011;44660;42.664;23.266;2023-01-06T06:21:09;3.95;;;2.15;;
58878;SDS011;44660;42.664;23.266;2023-01-06T06:23:36;4.97;;;2.33;;
58878;SDS011;44660;42.664;23.266;2023-01-06T06:26:02;4.50;;;2.65;;
58878;SDS011;44660;42.664;23.266;2023-01-06T06:28:32;5.95;;;3.00;;
58878;SDS011;44660;42.664;23.266;2023-01-06T06:31:08;5.90;;;2.40;;
58878;SDS011;44660;42.664;23.266;2023-01-06T06:33:37;6.10;;;2.55;;
58878;SDS011;44660;42.664;23.266;2023-01-06T06:36:03;4.53;;;2.17;;
58878;SDS011;44660;42.664;23.266;2023-01-06T06:38:30;3.70;;;2.30;;
58878;SDS011;44660;42.664;23.266;2023-01-06T06:40:56;5.07;;;2.50;;
58878;SDS011;44660;42.664;23.266;2023-01-06T06:43:21;4.32;;;2.50;;
58878;SDS011;44660;42.664;23.266;2023-01-06T06:45:47;4.80;;;2.22;;
58878;SDS011;44660;42.664;23.266;2023-01-06T06:48:13;4.57;;;2.03;;
58878;SDS011;44660;42.664;23.266;2023-01-06T06:50:38;5.25;;;2.60;;
58878;SDS011;44660;42.664;23.266;2023-01-06T06:53:04;6.13;;;2.25;;
58878;SDS011;44660;42.664;23.266;2023-01-06T06:55:31;4.88;;;2.40;;
58878;SDS011;44660;42.664;23.266;2023-01-06T06:57:57;6.03;;;2.25;;
58878;SDS011;44660;42.664;23.266;2023-01-06T07:00:22;3.65;;;1.90;;
58878;SDS011;44660;42.664;23.266;2023-01-06T07:02:48;2.53;;;1.80;;
58878;SDS011;44660;42.664;23.266;2023-01-06T07:05:15;8.85;;;4.90;;
58878;SDS011;44660;42.664;23.266;2023-01-06T07:07:41;6.55;;;3.97;;
58878;SDS011;44660;42.664;23.266;2023-01-06T07:10:07;5.85;;;2.40;;
58878;SDS011;44660;42.664;23.266;2023-01-06T07:12:36;5.70;;;2.30;;
58878;SDS011;44660;42.664;23.266;2023-01-06T07:15:01;4.63;;;1.85;;
58878;SDS011;44660;42.664;23.266;2023-01-06T07:17:27;6.30;;;2.28;;
58878;SDS011;44660;42.664;23.266;2023-01-06T07:19:53;4.88;;;2.33;;
58878;SDS011;44660;42.664;23.266;2023-01-06T07:22:18;3.03;;;1.67;;
58878;SDS011;44660;42.664;23.266;2023-01-06T07:24:44;3.83;;;1.70;;
58878;SDS011;44660;42.664;23.266;2023-01-06T07:27:10;3.83;;;1.90;;
58878;SDS011;44660;42.664;23.266;2023-01-06T07:29:36;4.32;;;2.08;;
58878;SDS011;44660;42.664;23.266;2023-01-06T07:32:01;13.95;;;2.22;;
58878;SDS011;44660;42.664;23.266;2023-01-06T07:34:27;5.82;;;1.80;;
58878;SDS011;44660;42.664;23.266;2023-01-06T07:36:52;4.05;;;2.13;;
58878;SDS011;44660;42.664;23.266;2023-01-06T07:39:18;5.45;;;2.00;;
58878;SDS011;44660;42.664;23.266;2023-01-06T07:41:43;3.53;;;1.90;;
58878;SDS011;44660;42.664;23.266;2023-01-06T07:44:09;3.88;;;1.63;;
58878;SDS011;44660;42.664;23.266;2023-01-06T07:46:34;4.38;;;1.80;;
58878;SDS011;44660;42.664;23.266;2023-01-06T07:49:00;3.78;;;1.73;;
58878;SDS011;44660;42.664;23.266;2023-01-06T07:51:25;3.45;;;1.70;;
58878;SDS011;44660;42.664;23.266;2023-01-06T07:53:51;4.45;;;1.85;;
58878;SDS011;44660;42.664;23.266;2023-01-06T07:56:16;6.30;;;2.00;;
58878;SDS011;44660;42.664;23.266;2023-01-06T07:58:42;9.48;;;2.00;;
58878;SDS011;44660;42.664;23.266;2023-01-06T08:01:08;8.23;;;4.13;;
58878;SDS011;44660;42.664;23.266;2023-01-06T08:03:33;5.53;;;3.22;;
58878;SDS011;44660;42.664;23.266;2023-01-06T08:06:03;3.95;;;1.70;;
58878;SDS011;44660;42.664;23.266;2023-01-06T08:08:30;3.45;;;1.65;;
58878;SDS011;44660;42.664;23.266;2023-01-06T08:10:56;8.15;;;1.75;;
58878;SDS011;44660;42.664;23.266;2023-01-06T08:13:22;5.85;;;1.98;;
58878;SDS011;44660;42.664;23.266;2023-01-06T08:15:48;6.32;;;1.83;;
58878;SDS011;44660;42.664;23.266;2023-01-06T08:18:16;5.32;;;2.13;;
58878;SDS011;44660;42.664;23.266;2023-01-06T08:20:41;2.92;;;1.88;;
58878;SDS011;44660;42.664;23.266;2023-01-06T08:23:07;8.63;;;3.22;;
58878;SDS011;44660;42.664;23.266;2023-01-06T08:25:33;3.97;;;1.80;;
58878;SDS011;44660;42.664;23.266;2023-01-06T08:27:58;3.75;;;1.17;;
58878;SDS011;44660;42.664;23.266;2023-01-06T08:30:24;2.10;;;1.20;;
58878;SDS011;44660;42.664;23.266;2023-01-06T08:32:50;5.63;;;1.65;;
58878;SDS011;44660;42.664;23.266;2023-01-06T08:35:15;2.78;;;1.73;;
58878;SDS011;44660;42.664;23.266;2023-01-06T08:37:41;2.45;;;1.23;;
58878;SDS011;44660;42.664;23.266;2023-01-06T08:40:07;5.30;;;1.67;;
58878;SDS011;44660;42.664;23.266;2023-01-06T08:42:32;5.95;;;1.27;;
58878;SDS011;44660;42.664;23.266;2023-01-06T08:44:58;2.75;;;1.30;;
58878;SDS011;44660;42.664;23.266;2023-01-06T08:47:23;3.28;;;1.10;;
58878;SDS011;44660;42.664;23.266;2023-01-06T08:49:49;6.10;;;1.80;;
58878;SDS011;44660;42.664;23.266;2023-01-06T08:52:14;6.78;;;2.45;;
58878;SDS011;44660;42.664;23.266;2023-01-06T08:54:40;3.15;;;1.35;;
58878;SDS011;44660;42.664;23.266;2023-01-06T08:57:05;4.68;;;2.08;;
58878;SDS011;44660;42.664;23.266;2023-01-06T08:59:33;6.43;;;3.97;;
58878;SDS011;44660;42.664;23.266;2023-01-06T09:01:59;4.47;;;1.48;;
58878;SDS011;44660;42.664;23.266;2023-01-06T09:04:25;3.25;;;2.05;;
58878;SDS011;44660;42.664;23.266;2023-01-06T09:06:50;2.53;;;1.48;;
58878;SDS011;44660;42.664;23.266;2023-01-06T09:09:16;11.38;;;2.08;;
58878;SDS011;44660;42.664;23.266;2023-01-06T09:11:42;2.42;;;1.80;;
58878;SDS011;44660;42.664;23.266;2023-01-06T09:14:09;2.42;;;1.10;;
58878;SDS011;44660;42.664;23.266;2023-01-06T09:16:35;3.42;;;1.20;;
58878;SDS011;44660;42.664;23.266;2023-01-06T09:19:01;2.38;;;1.17;;
58878;SDS011;44660;42.664;23.266;2023-01-06T09:21:26;1.90;;;1.30;;
58878;SDS011;44660;42.664;23.266;2023-01-06T09:23:53;2.90;;;1.25;;
58878;SDS011;44660;42.664;23.266;2023-01-06T09:26:18;3.03;;;1.27;;
58878;SDS011;44660;42.664;23.266;2023-01-06T09:28:45;6.20;;;1.42;;
58878;SDS011;44660;42.664;23.266;2023-01-06T09:31:11;2.30;;;1.27;;
58878;SDS011;44660;42.664;23.266;2023-01-06T09:33:37;5.90;;;1.08;;
58878;SDS011;44660;42.664;23.266;2023-01-06T09:36:03;2.55;;;0.90;;
58878;SDS011;44660;42.664;23.266;2023-01-06T09:38:29;2.17;;;0.82;;
58878;SDS011;44660;42.664;23.266;2023-01-06T09:46:29;3.72;;;1.05;;
58878;SDS011;44660;42.664;23.266;2023-01-06T09:49:01;7.03;;;4.75;;
58878;SDS011;44660;42.664;23.266;2023-01-06T09:51:39;2.03;;;1.27;;
58878;SDS011;44660;42.664;23.266;2023-01-06T09:54:14;3.88;;;2.83;;
58878;SDS011;44660;42.664;23.266;2023-01-06T09:56:45;1.65;;;1.00;;
58878;SDS011;44660;42.664;23.266;2023-01-06T09:59:16;1.90;;;0.90;;
58878;SDS011;44660;42.664;23.266;2023-01-06T10:01:48;2.35;;;0.82;;
58878;SDS011;44660;42.664;23.266;2023-01-06T10:04:20;1.55;;;1.10;;
58878;SDS011;44660;42.664;23.266;2023-01-06T10:15:30;2.20;;;0.95;;
58878;SDS011;44660;42.664;23.266;2023-01-06T10:23:48;2.22;;;1.02;;
58878;SDS011;44660;42.664;23.266;2023-01-06T10:28:47;2.80;;;0.90;;
58878;SDS011;44660;42.664;23.266;2023-01-06T10:31:19;10.73;;;5.55;;
58878;SDS011;44660;42.664;23.266;2023-01-06T10:33:54;3.35;;;2.45;;
58878;SDS011;44660;42.664;23.266;2023-01-06T10:36:24;6.70;;;4.90;;
58878;SDS011;44660;42.664;23.266;2023-01-06T10:38:55;1.45;;;1.10;;
58878;SDS011;44660;42.664;23.266;2023-01-06T10:44:02;2.58;;;1.10;;
58878;SDS011;44660;42.664;23.266;2023-01-06T10:46:34;2.55;;;1.10;;
58878;SDS011;44660;42.664;23.266;2023-01-06T10:49:00;2.17;;;1.20;;
58878;SDS011;44660;42.664;23.266;2023-01-06T10:51:34;2.55;;;1.50;;
58878;SDS011;44660;42.664;23.266;2023-01-06T10:54:04;3.20;;;1.40;;
58878;SDS011;44660;42.664;23.266;2023-01-06T10:56:36;13.20;;;4.28;;
58878;SDS011;44660;42.664;23.266;2023-01-06T10:59:06;4.20;;;1.98;;
58878;SDS011;44660;42.664;23.266;2023-01-06T11:01:33;3.45;;;1.50;;
58878;SDS011;44660;42.664;23.266;2023-01-06T11:04:08;4.30;;;1.33;;
58878;SDS011;44660;42.664;23.266;2023-01-06T11:06:42;2.75;;;1.40;;
58878;SDS011;44660;42.664;23.266;2023-01-06T11:09:08;2.67;;;1.10;;
58878;SDS011;44660;42.664;23.266;2023-01-06T11:11:48;4.30;;;1.55;;
58878;SDS011;44660;42.664;23.266;2023-01-06T11:14:16;5.32;;;1.40;;
58878;SDS011;44660;42.664;23.266;2023-01-06T11:16:51;2.45;;;1.60;;
58878;SDS011;44660;42.664;23.266;2023-01-06T11:19:32;4.95;;;1.90;;
58878;SDS011;44660;42.664;23.266;2023-01-06T11:21:59;3.72;;;1.30;;
58878;SDS011;44660;42.664;23.266;2023-01-06T11:24:25;2.17;;;1.35;;
58878;SDS011;44660;42.664;23.266;2023-01-06T11:26:55;1.88;;;1.42;;
58878;SDS011;44660;42.664;23.266;2023-01-06T11:32:00;5.53;;;2.97;;
58878;SDS011;44660;42.664;23.266;2023-01-06T11:34:28;6.30;;;2.28;;
58878;SDS011;44660;42.664;23.266;2023-01-06T11:36:55;4.35;;;1.10;;
58878;SDS011;44660;42.664;23.266;2023-01-06T11:39:34;2.85;;;1.20;;
58878;SDS011;44660;42.664;23.266;2023-01-06T11:42:01;1.85;;;1.27;;
58878;SDS011;44660;42.664;23.266;2023-01-06T11:44:33;1.95;;;1.05;;
58878;SDS011;44660;42.664;23.266;2023-01-06T11:47:14;3.07;;;1.50;;
58878;SDS011;44660;42.664;23.266;2023-01-06T11:49:56;7.38;;;2.70;;
58878;SDS011;44660;42.664;23.266;2023-01-06T11:52:29;2.58;;;1.40;;
58878;SDS011;44660;42.664;23.266;2023-01-06T12:11:44;1.83;;;1.40;;
58878;SDS011;44660;42.664;23.266;2023-01-06T12:14:20;1.77;;;1.20;;
58878;SDS011;44660;42.664;23.266;2023-01-06T12:16:51;3.22;;;1.63;;
58878;SDS011;44660;42.664;23.266;2023-01-06T12:19:46;3.72;;;1.80;;
58878;SDS011;44660;42.664;23.266;2023-01-06T12:22:20;3.75;;;1.92;;
58878;SDS011;44660;42.664;23.266;2023-01-06T12:24:57;2.65;;;1.40;;
58878;SDS011;44660;42.664;23.266;2023-01-06T12:27:32;5.25;;;1.77;;
58878;SDS011;44660;42.664;23.266;2023-01-06T12:30:02;2.38;;;1.20;;
58878;SDS011;44660;42.664;23.266;2023-01-06T12:32:36;2.13;;;1.58;;
58878;SDS011;44660;42.664;23.266;2023-01-06T12:35:05;4.00;;;1.52;;
58878;SDS011;44660;42.664;23.266;2023-01-06T12:37:43;6.05;;;1.50;;
58878;SDS011;44660;42.664;23.266;2023-01-06T12:40:19;2.78;;;2.00;;
58878;SDS011;44660;42.664;23.266;2023-01-06T12:42:55;3.10;;;1.60;;
58878;SDS011;44660;42.664;23.266;2023-01-06T12:45:33;4.63;;;1.50;;
58878;SDS011;44660;42.664;23.266;2023-01-06T12:48:53;3.15;;;1.70;;
58878;SDS011;44660;42.664;23.266;2023-01-06T12:51:05;4.47;;;2.50;;
58878;SDS011;44660;42.664;23.266;2023-01-06T13:05:05;3.78;;;1.70;;
58878;SDS011;44660;42.664;23.266;2023-01-06T13:07:59;6.40;;;2.22;;
58878;SDS011;44660;42.664;23.266;2023-01-06T13:15:45;2.30;;;1.33;;
58878;SDS011;44660;42.664;23.266;2023-01-06T13:20:46;2.90;;;1.70;;
58878;SDS011;44660;42.664;23.266;2023-01-06T13:26:24;3.17;;;1.45;;
58878;SDS011;44660;42.664;23.266;2023-01-06T13:34:39;2.72;;;1.20;;
58878;SDS011;44660;42.664;23.266;2023-01-06T13:42:52;4.15;;;1.70;;
58878;SDS011;44660;42.664;23.266;2023-01-06T13:45:25;2.95;;;1.92;;
58878;SDS011;44660;42.664;23.266;2023-01-06T13:47:54;4.43;;;2.03;;
58878;SDS011;44660;42.664;23.266;2023-01-06T13:50:23;3.35;;;1.70;;
58878;SDS011;44660;42.664;23.266;2023-01-06T13:52:49;3.97;;;1.80;;
58878;SDS011;44660;42.664;23.266;2023-01-06T13:57:54;3.90;;;1.80;;
58878;SDS011;44660;42.664;23.266;2023-01-06T14:00:24;4.22;;;1.95;;
58878;SDS011;44660;42.664;23.266;2023-01-06T14:07:49;3.13;;;2.00;;
58878;SDS011;44660;42.664;23.266;2023-01-06T14:10:29;4.88;;;2.10;;
58878;SDS011;44660;42.664;23.266;2023-01-06T14:12:56;3.00;;;1.70;;
58878;SDS011;44660;42.664;23.266;2023-01-06T14:15:40;2.88;;;1.77;;
58878;SDS011;44660;42.664;23.266;2023-01-06T14:21:26;6.57;;;3.30;;
58878;SDS011;44660;42.664;23.266;2023-01-06T14:26:21;3.50;;;1.90;;
58878;SDS011;44660;42.664;23.266;2023-01-06T14:32:09;3.75;;;1.92;;
58878;SDS011;44660;42.664;23.266;2023-01-06T14:34:35;5.63;;;2.88;;
58878;SDS011;44660;42.664;23.266;2023-01-06T14:37:03;6.07;;;3.22;;
58878;SDS011;44660;42.664;23.266;2023-01-06T14:39:31;4.55;;;2.10;;
58878;SDS011;44660;42.664;23.266;2023-01-06T14:42:17;5.15;;;2.80;;
58878;SDS011;44660;42.664;23.266;2023-01-06T14:44:49;6.43;;;2.40;;
58878;SDS011;44660;42.664;23.266;2023-01-06T14:47:20;5.82;;;2.67;;
58878;SDS011;44660;42.664;23.266;2023-01-06T14:49:57;7.30;;;2.63;;
58878;SDS011;44660;42.664;23.266;2023-01-06T14:52:33;15.20;;;5.90;;
58878;SDS011;44660;42.664;23.266;2023-01-06T14:55:02;11.45;;;4.72;;
58878;SDS011;44660;42.664;23.266;2023-01-06T14:57:34;8.55;;;3.92;;
58878;SDS011;44660;42.664;23.266;2023-01-06T15:00:24;5.13;;;2.83;;
58878;SDS011;44660;42.664;23.266;2023-01-06T15:02:57;8.02;;;3.13;;
58878;SDS011;44660;42.664;23.266;2023-01-06T15:08:05;6.45;;;3.88;;
58878;SDS011;44660;42.664;23.266;2023-01-06T15:15:51;7.38;;;3.70;;
58878;SDS011;44660;42.664;23.266;2023-01-06T15:18:29;8.10;;;3.50;;
58878;SDS011;44660;42.664;23.266;2023-01-06T15:20:55;6.72;;;3.33;;
58878;SDS011;44660;42.664;23.266;2023-01-06T15:23:23;6.50;;;3.63;;
58878;SDS011;44660;42.664;23.266;2023-01-06T15:25:49;5.72;;;2.95;;
58878;SDS011;44660;42.664;23.266;2023-01-06T15:30:49;7.90;;;3.35;;
58878;SDS011;44660;42.664;23.266;2023-01-06T15:33:14;9.50;;;4.03;;
58878;SDS011;44660;42.664;23.266;2023-01-06T15:35:41;8.77;;;4.55;;
58878;SDS011;44660;42.664;23.266;2023-01-06T15:40:53;11.30;;;6.25;;
58878;SDS011;44660;42.664;23.266;2023-01-06T15:43:22;9.90;;;5.28;;
58878;SDS011;44660;42.664;23.266;2023-01-06T15:48:32;13.00;;;4.97;;
58878;SDS011;44660;42.664;23.266;2023-01-06T15:51:00;10.05;;;4.40;;
58878;SDS011;44660;42.664;23.266;2023-01-06T15:53:34;10.98;;;5.05;;
58878;SDS011;44660;42.664;23.266;2023-01-06T15:56:00;8.73;;;4.60;;
58878;SDS011;44660;42.664;23.266;2023-01-06T16:01:06;7.57;;;4.63;;
58878;SDS011;44660;42.664;23.266;2023-01-06T16:03:35;13.32;;;6.28;;
58878;SDS011;44660;42.664;23.266;2023-01-06T16:06:07;14.80;;;5.47;;
58878;SDS011;44660;42.664;23.266;2023-01-06T16:08:34;13.93;;;5.63;;
58878;SDS011;44660;42.664;23.266;2023-01-06T16:11:10;11.45;;;6.25;;
58878;SDS011;44660;42.664;23.266;2023-01-06T16:14:21;12.98;;;7.05;;
58878;SDS011;44660;42.664;23.266;2023-01-06T16:16:49;12.85;;;7.75;;
58878;SDS011;44660;42.664;23.266;2023-01-06T16:19:16;10.10;;;5.32;;
58878;SDS011;44660;42.664;23.266;2023-01-06T16:21:44;7.13;;;3.80;;
58878;SDS011;44660;42.664;23.266;2023-01-06T16:24:22;11.73;;;6.22;;
58878;SDS011;44660;42.664;23.266;2023-01-06T16:29:27;9.25;;;4.25;;
58878;SDS011;44660;42.664;23.266;2023-01-06T16:31:55;10.05;;;4.65;;
58878;SDS011;44660;42.664;23.266;2023-01-06T16:34:26;7.82;;;3.72;;
58878;SDS011;44660;42.664;23.266;2023-01-06T16:36:58;7.30;;;4.00;;
58878;SDS011;44660;42.664;23.266;2023-01-06T16:39:25;7.10;;;3.97;;
58878;SDS011;44660;42.664;23.266;2023-01-06T16:44:23;10.60;;;4.50;;
58878;SDS011;44660;42.664;23.266;2023-01-06T16:46:56;10.95;;;4.80;;
58878;SDS011;44660;42.664;23.266;2023-01-06T16:49:22;7.57;;;4.43;;
58878;SDS011;44660;42.664;23.266;2023-01-06T16:51:49;19.73;;;5.68;;
58878;SDS011;44660;42.664;23.266;2023-01-06T16:54:15;12.30;;;5.22;;
58878;SDS011;44660;42.664;23.266;2023-01-06T16:56:46;11.82;;;5.55;;
58878;SDS011;44660;42.664;23.266;2023-01-06T16:59:17;13.52;;;6.40;;
58878;SDS011;44660;42.664;23.266;2023-01-06T17:01:44;13.00;;;5.60;;
58878;SDS011;44660;42.664;23.266;2023-01-06T17:04:11;13.82;;;6.32;;
58878;SDS011;44660;42.664;23.266;2023-01-06T17:06:38;17.15;;;7.13;;
58878;SDS011;44660;42.664;23.266;2023-01-06T17:09:19;12.80;;;5.47;;
58878;SDS011;44660;42.664;23.266;2023-01-06T17:14:16;10.43;;;5.30;;
58878;SDS011;44660;42.664;23.266;2023-01-06T17:16:42;15.88;;;7.35;;
58878;SDS011;44660;42.664;23.266;2023-01-06T17:19:17;25.10;;;11.65;;
58878;SDS011;44660;42.664;23.266;2023-01-06T17:21:48;37.53;;;18.47;;
58878;SDS011;44660;42.664;23.266;2023-01-06T17:26:56;11.90;;;5.03;;
58878;SDS011;44660;42.664;23.266;2023-01-06T17:29:38;6.97;;;3.53;;
58878;SDS011;44660;42.664;23.266;2023-01-06T17:32:06;7.90;;;3.92;;
58878;SDS011;44660;42.664;23.266;2023-01-06T17:35:01;23.95;;;10.77;;
58878;SDS011;44660;42.664;23.266;2023-01-06T17:37:37;8.85;;;4.07;;